KASE/ASE METAR and TAF weather

Enter ICAO airport designator
Station Type Date Time Source
KASE METAR 2020/03/29 11:53 UTC NOAA

KASE 291153Z AUTO 20007KT 10SM FEW055 SCT070 M07/M13 A3011 RMK AO2 SLP194 T10671128 11044 21078 55001


Station Type Date Time Source
KASE Decoded METAR 2020/03/29 11:53 UTC NOAA

ASPEN-PITKIN COUNTY AIRPORT, CO, United States (KASE) 39-14N 106-52W 2354M
Mar 29, 2020 - 07:53 AM EDT / 2020.03.29 1153 UTC
Wind: from the SSW (200 degrees) at 8 MPH (7 KT):0
Visibility: 10 mile(s):0
Sky conditions: partly cloudy
Temperature: 19.9 F (-6.7 C)
Windchill: 10 F (-12 C):1
Dew Point: 9.0 F (-12.8 C)
Relative Humidity: 61%
Pressure (altimeter): 30.11 in. Hg (1019 hPa)
Pressure tendency: 0.00 inches (0.1 hPa) lower than three hours ago
ob: KASE 291153Z AUTO 20007KT 10SM FEW055 SCT070 M07/M13 A3011 RMK AO2 SLP194 T10671128 11044 21078 55001
cycle: 12

Station Type Date Time Source
KASE TAF 2020/03/29 12:22 UTC NOAA

TAF KASE 291120Z 2912/3012 21007KT P6SM BKN050 BKN080
FM291900 33008KT P6SM VCSH SCT045 BKN050
FM300100 21005KT P6SM VCSH SCT030 BKN040
FM300600 19004KT 6SM -SN BR SCT030 OVC050
FM300900 21004KT 6SM -SN SCT020 OVC025

Example: see airport list